createdAt,value
2019-06-26T00:01:19.035Z,22.52
2019-06-26T00:03:23.878Z,22.47
2019-06-26T00:05:28.835Z,22.44
2019-06-26T00:07:32.724Z,22.40
2019-06-26T00:09:36.627Z,22.36
2019-06-26T00:11:40.512Z,22.34
2019-06-26T00:13:44.442Z,22.30
2019-06-26T00:15:48.502Z,22.23
2019-06-26T00:17:52.301Z,22.18
2019-06-26T00:19:56.215Z,22.13
2019-06-26T00:22:00.043Z,22.10
2019-06-26T00:24:04.024Z,22.06
2019-06-26T00:26:07.770Z,22.06
2019-06-26T00:28:11.757Z,22.04
2019-06-26T00:30:17.329Z,22.02
2019-06-26T00:32:23.287Z,22.01
2019-06-26T00:34:27.180Z,21.98
2019-06-26T00:36:31.060Z,21.94
2019-06-26T00:38:35.016Z,21.90
2019-06-26T00:40:38.946Z,21.88
2019-06-26T00:42:42.796Z,21.87
2019-06-26T00:44:46.692Z,21.86
2019-06-26T00:46:50.567Z,21.85
2019-06-26T00:48:56.407Z,21.84
2019-06-26T00:51:00.253Z,21.82
2019-06-26T00:53:04.216Z,21.80
2019-06-26T00:55:08.506Z,21.79
2019-06-26T00:57:13.477Z,21.75
2019-06-26T00:59:17.306Z,21.75
2019-06-26T01:01:21.192Z,21.75
2019-06-26T01:03:25.110Z,21.74
2019-06-26T01:05:29.073Z,21.68
2019-06-26T01:07:33.215Z,21.69
2019-06-26T01:09:37.012Z,21.65
2019-06-26T01:11:41.142Z,21.65
2019-06-26T01:13:57.313Z,21.61
2019-06-26T01:15:52.655Z,21.56
2019-06-26T01:17:57.546Z,21.54
2019-06-26T01:20:01.483Z,21.50
2019-06-26T01:22:05.406Z,21.39
2019-06-26T01:24:09.346Z,21.32
2019-06-26T01:26:13.077Z,21.32
2019-06-26T01:28:17.989Z,21.31
2019-06-26T01:30:23.037Z,21.27
2019-06-26T01:32:26.949Z,21.26
2019-06-26T01:34:31.054Z,21.14
2019-06-26T01:36:34.955Z,21.14
2019-06-26T01:38:38.926Z,21.08
2019-06-26T01:40:43.081Z,21.00
2019-06-26T01:42:46.857Z,20.94
2019-06-26T01:44:50.783Z,20.92
2019-06-26T01:46:54.669Z,20.90
2019-06-26T01:48:58.550Z,20.88
2019-06-26T01:51:02.464Z,20.85
2019-06-26T01:53:06.376Z,20.82
2019-06-26T01:55:11.320Z,20.82
2019-06-26T01:57:15.211Z,20.81
2019-06-26T01:59:19.120Z,20.81
2019-06-26T02:01:23.165Z,20.83
2019-06-26T02:03:26.934Z,20.83
2019-06-26T02:05:30.835Z,20.86
2019-06-26T02:07:34.719Z,20.86
2019-06-26T02:09:38.633Z,20.85
2019-06-26T02:11:42.548Z,20.84
2019-06-26T02:13:46.433Z,20.83
2019-06-26T02:15:50.365Z,20.83
2019-06-26T02:17:54.245Z,20.82
2019-06-26T02:19:58.163Z,20.82
2019-06-26T02:22:02.085Z,20.79
2019-06-26T02:24:06.044Z,20.79
2019-06-26T02:26:09.960Z,20.77
2019-06-26T02:28:13.795Z,20.73
2019-06-26T02:30:19.152Z,20.69
2019-06-26T02:32:23.049Z,20.65
2019-06-26T02:34:26.916Z,20.63
2019-06-26T02:36:30.845Z,20.61
2019-06-26T02:38:34.995Z,20.58
2019-06-26T02:40:38.888Z,20.54
2019-06-26T02:42:42.796Z,20.52
2019-06-26T02:44:53.338Z,20.52
2019-06-26T02:46:52.298Z,20.51
2019-06-26T02:48:57.233Z,20.52
2019-06-26T02:51:01.235Z,20.53
2019-06-26T02:53:05.229Z,20.52
2019-06-26T02:55:09.295Z,20.51
2019-06-26T02:57:13.231Z,20.50
2019-06-26T02:59:17.074Z,20.49
2019-06-26T03:01:21.074Z,20.45
2019-06-26T03:03:24.919Z,20.43
2019-06-26T03:05:28.816Z,20.41
2019-06-26T03:07:32.693Z,20.39
2019-06-26T03:09:36.612Z,20.38
2019-06-26T03:11:40.575Z,20.38
2019-06-26T03:13:44.399Z,20.37
2019-06-26T03:15:50.506Z,20.36
2019-06-26T03:17:55.658Z,20.36
2019-06-26T03:19:59.197Z,20.37
2019-06-26T03:22:03.318Z,20.32
2019-06-26T03:24:07.219Z,20.27
2019-06-26T03:26:11.308Z,20.26
2019-06-26T03:28:15.073Z,20.27
2019-06-26T03:30:20.197Z,20.27
2019-06-26T03:32:25.118Z,20.27
2019-06-26T03:34:29.096Z,20.30
2019-06-26T03:36:32.892Z,20.34
2019-06-26T03:38:36.926Z,20.34
2019-06-26T03:40:40.832Z,20.35
2019-06-26T03:42:44.609Z,20.38
2019-06-26T03:44:48.590Z,20.41
2019-06-26T03:46:54.295Z,20.44
2019-06-26T03:48:58.134Z,20.48
2019-06-26T03:51:02.057Z,20.50
2019-06-26T03:53:06.107Z,20.52
2019-06-26T03:55:10.005Z,20.53
2019-06-26T03:57:13.756Z,20.52
2019-06-26T03:59:17.685Z,20.51
2019-06-26T04:01:22.599Z,20.56
2019-06-26T04:03:27.545Z,20.61
2019-06-26T04:05:31.420Z,20.66
2019-06-26T04:07:35.399Z,20.71
2019-06-26T04:09:39.257Z,20.71
2019-06-26T04:11:43.421Z,20.74
2019-06-26T04:13:47.258Z,20.80
2019-06-26T04:15:51.470Z,20.83
2019-06-26T04:17:57.386Z,20.87
2019-06-26T04:20:01.323Z,20.93
2019-06-26T04:22:05.328Z,21.01
2019-06-26T04:24:09.304Z,21.10
2019-06-26T04:26:13.141Z,21.18
2019-06-26T04:28:17.029Z,21.28
2019-06-26T04:30:21.629Z,21.38
2019-06-26T04:32:25.463Z,21.45
2019-06-26T04:34:29.370Z,21.54
2019-06-26T04:36:33.275Z,21.66
2019-06-26T04:38:37.253Z,21.77
2019-06-26T04:40:41.130Z,21.84
2019-06-26T04:42:44.979Z,21.96
2019-06-26T04:44:48.891Z,22.07
2019-06-26T04:46:52.798Z,22.22
2019-06-26T04:48:56.700Z,22.35
2019-06-26T04:51:00.625Z,22.46
2019-06-26T04:53:04.695Z,22.58
2019-06-26T04:55:09.514Z,22.72
2019-06-26T04:57:13.332Z,22.86
2019-06-26T04:59:17.232Z,23.01
2019-06-26T05:01:20.981Z,23.14
2019-06-26T05:03:24.835Z,23.28
2019-06-26T05:05:38.887Z,23.40
2019-06-26T05:07:34.297Z,23.54
2019-06-26T05:09:38.018Z,23.71
2019-06-26T05:11:41.762Z,23.89
2019-06-26T05:13:45.473Z,24.04
2019-06-26T05:15:49.226Z,24.20
2019-06-26T05:17:53.012Z,24.37
2019-06-26T05:19:56.730Z,24.57
2019-06-26T05:22:00.533Z,24.75
2019-06-26T05:24:04.262Z,24.92
2019-06-26T05:26:08.061Z,25.12
2019-06-26T05:28:11.793Z,25.31
2019-06-26T05:30:16.905Z,25.51
2019-06-26T05:32:20.591Z,25.70
2019-06-26T05:34:24.463Z,25.92
2019-06-26T05:36:28.201Z,26.12
2019-06-26T05:38:31.934Z,26.33
2019-06-26T05:40:35.662Z,26.52
2019-06-26T05:42:39.376Z,26.72
2019-06-26T05:44:43.173Z,26.96
2019-06-26T05:46:46.968Z,27.20
2019-06-26T05:48:50.745Z,27.46
2019-06-26T05:50:54.922Z,27.71
2019-06-26T05:52:58.644Z,27.99
2019-06-26T05:55:02.604Z,28.25
2019-06-26T05:57:06.392Z,28.51
2019-06-26T05:59:10.110Z,28.77
2019-06-26T06:01:13.877Z,29.09
2019-06-26T06:03:18.014Z,29.40
2019-06-26T06:05:22.090Z,29.72
2019-06-26T06:07:25.835Z,30.05
2019-06-26T06:09:29.632Z,30.42
2019-06-26T06:11:33.355Z,30.84
2019-06-26T06:13:37.077Z,31.33
2019-06-26T06:15:40.810Z,31.97
2019-06-26T06:17:44.723Z,32.87
2019-06-26T06:19:48.445Z,33.76
2019-06-26T06:21:52.230Z,34.66
2019-06-26T06:23:55.987Z,35.48
2019-06-26T06:25:59.808Z,36.30
2019-06-26T06:28:03.617Z,36.94
2019-06-26T06:30:07.931Z,37.81
2019-06-26T06:32:11.689Z,38.64
2019-06-26T06:34:15.391Z,39.23
2019-06-26T06:36:19.115Z,39.83
2019-06-26T06:38:22.847Z,40.50
2019-06-26T06:40:26.640Z,41.15
2019-06-26T06:42:30.412Z,41.87
2019-06-26T06:44:34.346Z,42.59
2019-06-26T06:46:38.062Z,43.29
2019-06-26T06:48:41.779Z,43.96
2019-06-26T06:50:45.632Z,44.54
2019-06-26T06:52:49.373Z,45.20
2019-06-26T06:54:53.091Z,45.81
2019-06-26T06:56:56.941Z,46.35
2019-06-26T06:59:00.846Z,46.79
2019-06-26T07:01:04.833Z,47.05
2019-06-26T07:03:08.663Z,47.17
2019-06-26T07:05:12.644Z,47.21
2019-06-26T07:07:16.359Z,47.42
2019-06-26T07:09:20.223Z,47.77
2019-06-26T07:11:24.049Z,48.06
2019-06-26T07:13:27.768Z,48.29
2019-06-26T07:15:31.758Z,48.41
2019-06-26T07:17:35.634Z,48.46
2019-06-26T07:19:39.463Z,48.72
2019-06-26T07:21:43.374Z,48.94
2019-06-26T07:23:47.295Z,49.31
2019-06-26T07:25:51.013Z,49.80
2019-06-26T07:27:54.880Z,50.17
2019-06-26T07:29:58.667Z,50.73
2019-06-26T07:32:02.392Z,51.17
2019-06-26T07:34:06.176Z,51.64
2019-06-26T07:36:10.040Z,52.09
2019-06-26T07:38:13.850Z,52.41
2019-06-26T07:40:18.062Z,52.64
2019-06-26T07:42:21.832Z,53.00
2019-06-26T07:44:25.570Z,53.32
2019-06-26T07:46:29.289Z,53.65
2019-06-26T07:48:33.020Z,54.08
2019-06-26T07:50:36.787Z,54.27
2019-06-26T07:52:40.552Z,54.66
2019-06-26T07:54:44.284Z,55.17
2019-06-26T07:56:48.081Z,55.56
2019-06-26T07:58:51.832Z,55.81
2019-06-26T08:00:55.604Z,56.04
2019-06-26T08:02:59.546Z,56.25
2019-06-26T08:05:03.343Z,56.18
2019-06-26T08:07:07.358Z,56.02
2019-06-26T08:09:11.155Z,56.10
2019-06-26T08:11:15.222Z,56.35
2019-06-26T08:13:19.176Z,56.36
2019-06-26T08:15:23.240Z,56.07
2019-06-26T08:17:27.125Z,55.95
2019-06-26T08:19:30.857Z,55.54
2019-06-26T08:21:34.632Z,55.63
2019-06-26T08:23:38.458Z,56.10
2019-06-26T08:25:42.348Z,56.28
2019-06-26T08:27:46.267Z,56.34
2019-06-26T08:29:50.068Z,56.49
2019-06-26T08:31:53.887Z,56.93
2019-06-26T08:33:57.782Z,57.20
2019-06-26T08:36:01.488Z,57.47
2019-06-26T08:38:11.273Z,57.71
2019-06-26T08:40:11.977Z,58.07
2019-06-26T08:42:15.707Z,58.35
2019-06-26T08:44:19.560Z,58.19
2019-06-26T08:46:23.339Z,57.96
2019-06-26T08:48:38.814Z,57.53
2019-06-26T08:50:32.766Z,57.21
2019-06-26T08:52:36.601Z,57.27
2019-06-26T08:54:40.315Z,57.72
2019-06-26T08:56:44.266Z,58.05
2019-06-26T08:58:47.999Z,57.95
2019-06-26T09:00:51.715Z,58.01
2019-06-26T09:02:55.496Z,57.98
2019-06-26T09:04:59.257Z,58.01
2019-06-26T09:07:03.128Z,58.35
2019-06-26T09:09:07.659Z,58.74
2019-06-26T09:11:11.529Z,58.91
2019-06-26T09:13:15.245Z,58.92
2019-06-26T09:15:19.513Z,58.80
2019-06-26T09:17:23.240Z,58.62
2019-06-26T09:19:26.966Z,58.39
2019-06-26T09:21:31.390Z,58.38
2019-06-26T09:23:35.369Z,58.67
2019-06-26T09:25:39.103Z,58.97
2019-06-26T09:27:42.973Z,59.25
2019-06-26T09:29:46.714Z,59.34
2019-06-26T09:31:50.499Z,59.41
2019-06-26T09:33:54.289Z,59.72
2019-06-26T09:35:58.261Z,59.89
2019-06-26T09:38:02.161Z,59.52
2019-06-26T09:40:06.648Z,59.52
2019-06-26T09:42:10.438Z,59.40
2019-06-26T09:44:14.296Z,59.33
2019-06-26T09:46:18.109Z,59.28
2019-06-26T09:48:21.838Z,59.02
2019-06-26T09:50:25.629Z,58.92
2019-06-26T09:52:29.495Z,59.22
2019-06-26T09:54:33.228Z,59.67
2019-06-26T09:56:37.088Z,59.93
2019-06-26T09:58:40.918Z,59.82
2019-06-26T10:00:44.660Z,59.69
2019-06-26T10:02:48.365Z,59.60
2019-06-26T10:04:52.237Z,59.62
2019-06-26T10:06:55.950Z,59.83
2019-06-26T10:08:59.847Z,60.02
2019-06-26T10:11:03.714Z,60.27
2019-06-26T10:13:07.456Z,60.40
2019-06-26T10:15:11.967Z,60.68
2019-06-26T10:17:15.821Z,60.95
2019-06-26T10:19:19.623Z,61.05
2019-06-26T10:21:23.801Z,61.02
2019-06-26T10:23:27.795Z,60.61
2019-06-26T10:25:31.532Z,60.31
2019-06-26T10:27:35.280Z,60.40
2019-06-26T10:29:39.194Z,60.64
2019-06-26T10:31:42.985Z,60.83
2019-06-26T10:33:46.895Z,60.93
2019-06-26T10:35:50.733Z,61.01
2019-06-26T10:37:54.518Z,60.82
2019-06-26T10:39:58.247Z,60.48
2019-06-26T10:42:02.174Z,60.26
2019-06-26T10:44:06.184Z,60.08
2019-06-26T10:46:09.912Z,59.73
2019-06-26T10:48:13.705Z,59.90
2019-06-26T10:50:17.928Z,60.15
2019-06-26T10:52:21.648Z,60.37
2019-06-26T10:54:25.520Z,60.44
2019-06-26T10:56:29.454Z,60.11
2019-06-26T10:58:33.174Z,59.82
2019-06-26T11:00:37.359Z,59.90
2019-06-26T11:02:41.403Z,60.16
2019-06-26T11:04:45.245Z,60.24
2019-06-26T11:06:49.181Z,60.13
2019-06-26T11:08:53.259Z,59.81
2019-06-26T11:10:57.208Z,59.71
2019-06-26T11:13:01.151Z,60.11
2019-06-26T11:15:05.712Z,60.45
2019-06-26T11:17:09.409Z,60.64
2019-06-26T11:19:13.226Z,60.90
2019-06-26T11:21:17.198Z,61.08
2019-06-26T11:23:20.992Z,61.28
2019-06-26T11:25:24.916Z,60.99
2019-06-26T11:27:28.814Z,60.64
2019-06-26T11:29:32.546Z,60.39
2019-06-26T11:31:36.291Z,60.33
2019-06-26T11:33:40.024Z,60.44
2019-06-26T11:35:43.838Z,60.56
2019-06-26T11:37:47.727Z,60.40
2019-06-26T11:39:51.867Z,60.28
2019-06-26T11:41:55.761Z,60.21
2019-06-26T11:43:59.489Z,60.13
2019-06-26T11:46:03.429Z,60.21
2019-06-26T11:48:07.380Z,60.29
2019-06-26T11:50:13.023Z,60.00
2019-06-26T11:52:16.981Z,59.53
2019-06-26T11:54:20.902Z,59.06
2019-06-26T11:56:24.685Z,58.45
2019-06-26T11:58:28.723Z,57.09
2019-06-26T12:00:32.446Z,56.39
2019-06-26T12:02:36.432Z,56.03
2019-06-26T12:04:40.687Z,55.21
2019-06-26T12:06:46.279Z,54.52
2019-06-26T12:08:50.187Z,54.45
2019-06-26T12:10:53.899Z,54.61
2019-06-26T12:12:57.623Z,55.07
2019-06-26T12:15:01.519Z,55.56
2019-06-26T12:17:05.232Z,56.12
2019-06-26T12:19:08.958Z,56.38
2019-06-26T12:21:12.834Z,56.32
2019-06-26T12:23:16.706Z,56.16
2019-06-26T12:25:20.579Z,55.73
2019-06-26T12:27:24.577Z,55.43
2019-06-26T12:29:28.404Z,55.44
2019-06-26T12:31:32.388Z,55.10
2019-06-26T12:33:36.110Z,54.60
2019-06-26T12:35:40.972Z,54.47
2019-06-26T12:37:44.864Z,54.32
2019-06-26T12:39:48.596Z,54.24
2019-06-26T12:41:52.435Z,54.12
2019-06-26T12:43:56.347Z,53.94
2019-06-26T12:46:00.263Z,54.01
2019-06-26T12:48:04.057Z,54.11
2019-06-26T12:50:08.730Z,54.08
2019-06-26T12:52:12.433Z,54.21
2019-06-26T12:54:16.206Z,54.44
2019-06-26T12:56:19.999Z,54.81
2019-06-26T12:58:23.816Z,55.19
2019-06-26T13:00:27.686Z,55.09
2019-06-26T13:02:31.583Z,54.82
2019-06-26T13:04:35.371Z,54.52
2019-06-26T13:06:39.286Z,53.82
2019-06-26T13:08:43.147Z,53.20
2019-06-26T13:10:50.045Z,53.02
2019-06-26T13:12:52.434Z,53.29
2019-06-26T13:14:56.362Z,53.55
2019-06-26T13:17:00.069Z,53.78
2019-06-26T13:19:03.840Z,54.08
2019-06-26T13:21:07.727Z,54.04
2019-06-26T13:23:14.629Z,53.66
2019-06-26T13:25:17.082Z,53.24
2019-06-26T13:27:20.797Z,52.69
2019-06-26T13:29:24.508Z,51.99
2019-06-26T13:31:28.288Z,51.17
2019-06-26T13:33:32.077Z,50.57
2019-06-26T13:35:35.784Z,50.17
2019-06-26T13:37:39.513Z,49.75
2019-06-26T13:39:43.211Z,49.36
2019-06-26T13:41:46.946Z,49.11
2019-06-26T13:43:50.793Z,48.90
2019-06-26T13:45:54.494Z,48.82
2019-06-26T13:47:58.210Z,48.36
2019-06-26T13:50:02.756Z,47.78
2019-06-26T13:52:06.621Z,47.23
2019-06-26T13:54:10.801Z,46.73
2019-06-26T13:56:14.523Z,46.28
2019-06-26T13:58:18.384Z,45.78
2019-06-26T14:00:23.651Z,45.17
2019-06-26T14:02:27.504Z,44.60
2019-06-26T14:04:31.193Z,44.24
2019-06-26T14:06:35.011Z,44.01
2019-06-26T14:08:38.716Z,43.77
2019-06-26T14:10:42.574Z,43.46
2019-06-26T14:12:46.369Z,43.24
2019-06-26T14:14:57.366Z,43.06
2019-06-26T14:16:55.615Z,42.91
2019-06-26T14:18:59.424Z,42.73
2019-06-26T14:21:03.327Z,42.61
2019-06-26T14:23:07.118Z,42.53
2019-06-26T14:25:11.068Z,42.38
2019-06-26T14:27:14.831Z,42.16
2019-06-26T14:29:21.196Z,41.96
2019-06-26T14:31:24.351Z,41.78
2019-06-26T14:33:28.078Z,41.64
2019-06-26T14:35:31.778Z,41.53
2019-06-26T14:37:35.621Z,41.37
2019-06-26T14:39:41.101Z,41.21
2019-06-26T14:41:45.026Z,41.11
2019-06-26T14:43:48.760Z,40.97
2019-06-26T14:45:52.455Z,40.82
2019-06-26T14:47:56.162Z,40.63
2019-06-26T14:49:59.861Z,40.47
2019-06-26T14:52:03.812Z,40.29
2019-06-26T14:54:07.730Z,40.11
2019-06-26T14:56:11.575Z,39.95
2019-06-26T14:58:15.462Z,39.83
2019-06-26T15:00:19.246Z,39.72
2019-06-26T15:02:23.070Z,39.64
2019-06-26T15:04:26.843Z,39.61
2019-06-26T15:06:30.538Z,39.63
2019-06-26T15:08:34.285Z,39.64
2019-06-26T15:10:38.055Z,39.60
2019-06-26T15:12:41.838Z,39.52
2019-06-26T15:14:45.583Z,39.44
2019-06-26T15:16:49.443Z,39.39
2019-06-26T15:18:53.165Z,39.34
2019-06-26T15:20:56.972Z,39.32
2019-06-26T15:23:00.690Z,39.24
2019-06-26T15:25:04.787Z,39.21
2019-06-26T15:27:08.590Z,39.18
2019-06-26T15:29:12.390Z,39.19
2019-06-26T15:31:16.221Z,39.19
2019-06-26T15:33:19.919Z,39.20
2019-06-26T15:35:23.823Z,39.20
2019-06-26T15:37:27.546Z,39.19
2019-06-26T15:39:31.308Z,39.18
2019-06-26T15:41:35.189Z,39.12
2019-06-26T15:43:39.170Z,39.05
2019-06-26T15:45:43.160Z,38.99
2019-06-26T15:47:46.920Z,38.94
2019-06-26T15:49:50.652Z,38.90
2019-06-26T15:51:55.120Z,38.83
2019-06-26T15:54:00.039Z,38.75
2019-06-26T15:56:04.002Z,38.69
2019-06-26T15:58:07.711Z,38.66
2019-06-26T16:00:12.422Z,38.65
2019-06-26T16:02:16.132Z,38.60
2019-06-26T16:04:19.927Z,38.57
2019-06-26T16:06:23.639Z,38.51
2019-06-26T16:08:27.459Z,38.44
2019-06-26T16:10:34.285Z,38.36
2019-06-26T16:12:36.722Z,38.29
2019-06-26T16:14:40.542Z,38.25
2019-06-26T16:16:45.901Z,38.21
2019-06-26T16:18:54.941Z,38.13
2019-06-26T16:20:58.809Z,38.07
2019-06-26T16:23:02.557Z,38.04
2019-06-26T16:25:07.164Z,37.93
2019-06-26T16:27:10.876Z,37.78
2019-06-26T16:29:14.591Z,37.70
2019-06-26T16:31:18.308Z,37.65
2019-06-26T16:33:22.071Z,37.61
2019-06-26T16:35:25.775Z,37.59
2019-06-26T16:37:29.492Z,37.51
2019-06-26T16:39:33.231Z,37.44
2019-06-26T16:41:37.130Z,37.38
2019-06-26T16:43:40.931Z,37.31
2019-06-26T16:45:44.642Z,37.22
2019-06-26T16:47:48.350Z,37.16
2019-06-26T16:49:52.069Z,37.11
2019-06-26T16:51:55.780Z,37.04
2019-06-26T16:53:59.497Z,37.01
2019-06-26T16:56:03.346Z,36.98
2019-06-26T16:58:07.094Z,36.95
2019-06-26T17:00:11.191Z,36.88
2019-06-26T17:02:15.113Z,36.84
2019-06-26T17:04:18.966Z,36.80
2019-06-26T17:06:22.683Z,36.74
2019-06-26T17:08:26.559Z,36.67
2019-06-26T17:10:30.457Z,36.61
2019-06-26T17:12:34.379Z,36.53
2019-06-26T17:14:38.267Z,36.47
2019-06-26T17:16:42.095Z,36.40
2019-06-26T17:18:46.150Z,36.32
2019-06-26T17:20:49.975Z,36.27
2019-06-26T17:23:05.058Z,36.20
2019-06-26T17:24:59.542Z,36.13
2019-06-26T17:27:03.332Z,36.08
2019-06-26T17:29:07.130Z,36.03
2019-06-26T17:31:10.840Z,35.98
2019-06-26T17:33:14.634Z,35.91
2019-06-26T17:35:18.458Z,35.86
2019-06-26T17:37:22.169Z,35.78
2019-06-26T17:39:25.886Z,35.71
2019-06-26T17:41:29.652Z,35.66
2019-06-26T17:43:33.365Z,35.62
2019-06-26T17:45:37.097Z,35.57
2019-06-26T17:47:41.011Z,35.52
2019-06-26T17:49:44.860Z,35.47
2019-06-26T17:51:48.586Z,35.41
2019-06-26T17:53:52.472Z,35.33
2019-06-26T17:55:56.437Z,35.27
2019-06-26T17:58:00.338Z,35.18
2019-06-26T18:00:04.935Z,35.12
2019-06-26T18:02:08.685Z,35.07
2019-06-26T18:04:12.448Z,35.00
2019-06-26T18:06:16.165Z,34.96
2019-06-26T18:08:19.868Z,34.89
2019-06-26T18:10:23.780Z,34.83
2019-06-26T18:12:27.491Z,34.78
2019-06-26T18:14:31.353Z,34.72
2019-06-26T18:16:35.298Z,34.65
2019-06-26T18:18:39.010Z,34.58
2019-06-26T18:20:42.816Z,34.51
2019-06-26T18:22:46.598Z,34.42
2019-06-26T18:24:50.396Z,34.33
2019-06-26T18:26:54.097Z,34.26
2019-06-26T18:28:57.817Z,34.18
2019-06-26T18:31:01.739Z,34.11
2019-06-26T18:33:05.605Z,34.02
2019-06-26T18:35:10.083Z,33.95
2019-06-26T18:37:13.817Z,33.85
2019-06-26T18:39:17.537Z,33.79
2019-06-26T18:41:21.461Z,33.70
2019-06-26T18:43:27.608Z,33.62
2019-06-26T18:45:31.421Z,33.54
2019-06-26T18:47:35.211Z,33.45
2019-06-26T18:49:39.245Z,33.36
2019-06-26T18:51:43.090Z,33.28
2019-06-26T18:53:53.464Z,33.19
2019-06-26T18:55:52.560Z,33.11
2019-06-26T18:57:56.491Z,33.02
2019-06-26T19:00:00.275Z,32.94
2019-06-26T19:02:04.477Z,32.83
2019-06-26T19:04:08.295Z,32.75
2019-06-26T19:06:12.280Z,32.67
2019-06-26T19:08:16.218Z,32.57
2019-06-26T19:10:20.686Z,32.49
2019-06-26T19:12:24.656Z,32.42
2019-06-26T19:14:28.478Z,32.34
2019-06-26T19:16:35.375Z,32.26
2019-06-26T19:18:37.887Z,32.16
2019-06-26T19:20:41.707Z,32.02
2019-06-26T19:22:47.521Z,31.87
2019-06-26T19:24:51.020Z,31.74
2019-06-26T19:26:54.879Z,31.63
2019-06-26T19:28:58.795Z,31.50
2019-06-26T19:31:02.580Z,31.35
2019-06-26T19:33:06.405Z,31.20
2019-06-26T19:35:18.883Z,31.04
2019-06-26T19:37:15.968Z,30.86
2019-06-26T19:39:20.953Z,30.62
2019-06-26T19:41:26.155Z,30.39
2019-06-26T19:43:29.866Z,30.20
2019-06-26T19:45:33.803Z,30.01
2019-06-26T19:47:37.522Z,29.86
2019-06-26T19:49:41.404Z,29.74
2019-06-26T19:51:45.600Z,29.65
2019-06-26T19:53:49.385Z,29.56
2019-06-26T19:55:53.304Z,29.47
2019-06-26T19:57:57.244Z,29.40
2019-06-26T20:00:01.008Z,29.35
2019-06-26T20:02:04.927Z,29.29
2019-06-26T20:04:08.720Z,29.24
2019-06-26T20:06:12.619Z,29.17
2019-06-26T20:08:16.366Z,29.06
2019-06-26T20:10:20.562Z,28.91
2019-06-26T20:12:24.400Z,28.79
2019-06-26T20:14:28.146Z,28.65
2019-06-26T20:16:32.094Z,28.53
2019-06-26T20:18:35.879Z,28.44
2019-06-26T20:20:39.628Z,28.37
2019-06-26T20:22:43.625Z,28.31
2019-06-26T20:24:48.123Z,28.26
2019-06-26T20:26:52.039Z,28.19
2019-06-26T20:28:55.830Z,28.13
2019-06-26T20:30:59.582Z,28.06
2019-06-26T20:33:03.377Z,27.97
2019-06-26T20:35:07.823Z,27.86
2019-06-26T20:37:11.551Z,27.74
2019-06-26T20:39:15.562Z,27.64
2019-06-26T20:41:19.280Z,27.51
2019-06-26T20:43:23.800Z,27.39
2019-06-26T20:45:27.684Z,27.32
2019-06-26T20:47:31.393Z,27.24
2019-06-26T20:49:35.271Z,27.18
2019-06-26T20:51:39.107Z,27.10
2019-06-26T20:53:42.842Z,27.06
2019-06-26T20:55:46.561Z,27.03
2019-06-26T20:57:50.423Z,26.97
2019-06-26T20:59:54.301Z,26.88
2019-06-26T21:01:58.055Z,26.82
2019-06-26T21:04:01.910Z,26.73
2019-06-26T21:06:05.645Z,26.68
2019-06-26T21:08:09.361Z,26.64
2019-06-26T21:10:13.368Z,26.61
2019-06-26T21:12:17.342Z,26.61
2019-06-26T21:14:21.047Z,26.62
2019-06-26T21:16:24.771Z,26.62
2019-06-26T21:18:28.549Z,26.62
2019-06-26T21:20:32.328Z,26.63
2019-06-26T21:22:36.251Z,26.62
2019-06-26T21:24:40.154Z,26.61
2019-06-26T21:26:44.047Z,26.58
2019-06-26T21:28:47.957Z,26.55
2019-06-26T21:30:52.919Z,26.51
2019-06-26T21:32:56.825Z,26.40
2019-06-26T21:35:00.704Z,26.32
2019-06-26T21:37:04.604Z,26.22
2019-06-26T21:39:08.653Z,26.13
2019-06-26T21:41:12.401Z,26.09
2019-06-26T21:43:16.885Z,26.02
2019-06-26T21:45:21.387Z,25.98
2019-06-26T21:47:25.190Z,25.91
2019-06-26T21:49:29.057Z,25.86
2019-06-26T21:51:32.942Z,25.81
2019-06-26T21:53:37.677Z,25.77
2019-06-26T21:55:41.772Z,25.73
2019-06-26T21:57:45.702Z,25.68
2019-06-26T21:59:49.647Z,25.63
2019-06-26T22:01:53.640Z,25.58
2019-06-26T22:03:57.467Z,25.53
2019-06-26T22:06:01.356Z,25.48
2019-06-26T22:08:05.423Z,25.43
2019-06-26T22:10:09.667Z,25.41
2019-06-26T22:12:13.796Z,25.39
2019-06-26T22:14:17.613Z,25.37
2019-06-26T22:16:21.630Z,25.37
2019-06-26T22:18:25.555Z,25.37
2019-06-26T22:20:29.520Z,25.36
2019-06-26T22:22:33.461Z,25.36
2019-06-26T22:24:37.250Z,25.37
2019-06-26T22:26:41.765Z,25.36
2019-06-26T22:28:45.831Z,25.37
2019-06-26T22:30:51.690Z,25.38
2019-06-26T22:32:55.548Z,25.37
2019-06-26T22:34:59.475Z,25.36
2019-06-26T22:37:03.482Z,25.37
2019-06-26T22:39:07.467Z,25.38
2019-06-26T22:41:11.325Z,25.38
2019-06-26T22:43:15.439Z,25.37
2019-06-26T22:45:19.396Z,25.35
2019-06-26T22:47:23.422Z,25.33
2019-06-26T22:49:27.287Z,25.30
2019-06-26T22:51:31.212Z,25.27
2019-06-26T22:53:35.099Z,25.23
2019-06-26T22:55:38.911Z,25.20
2019-06-26T22:57:42.932Z,25.14
2019-06-26T22:59:46.792Z,25.05
2019-06-26T23:01:50.830Z,24.96
2019-06-26T23:03:54.786Z,24.85
2019-06-26T23:05:58.768Z,24.78
2019-06-26T23:08:02.783Z,24.71
2019-06-26T23:10:07.261Z,24.68
2019-06-26T23:12:14.286Z,24.66
2019-06-26T23:14:18.044Z,24.63
2019-06-26T23:16:21.874Z,24.60
2019-06-26T23:18:25.890Z,24.59
2019-06-26T23:20:29.707Z,24.57
2019-06-26T23:22:33.590Z,24.55
2019-06-26T23:24:37.573Z,24.51
2019-06-26T23:26:41.639Z,24.50
2019-06-26T23:28:45.700Z,24.50
2019-06-26T23:30:49.589Z,24.49
2019-06-26T23:32:53.571Z,24.50
2019-06-26T23:34:58.290Z,24.46
2019-06-26T23:37:02.134Z,24.42
2019-06-26T23:39:07.484Z,24.36
2019-06-26T23:41:11.221Z,24.31
2019-06-26T23:43:15.326Z,24.25
2019-06-26T23:45:19.572Z,24.23
2019-06-26T23:47:23.499Z,24.21
2019-06-26T23:49:27.435Z,24.18
2019-06-26T23:51:31.388Z,24.16
2019-06-26T23:53:35.290Z,24.14
2019-06-26T23:55:39.118Z,24.12
2019-06-26T23:57:57.892Z,24.12
2019-06-26T23:59:48.580Z,24.10
